Time;durP1;ratioP1;P1;durP2;ratioP2;P2;SDS_P1;SDS_P2;PMS_P1;PMS_P2;Temp;Humidity;BMP_temperature;BMP_pressure;BME280_temperature;BME280_humidity;BME280_pressure;Samples;Min_cycle;Max_cycle;Signal;HPM_P1;HPM_P2
2020/12/02 00:00:43;;;;;;;474.67;277.00;;;;;;;;;;5065767;28;20320;-48
2020/12/02 00:03:25;;;;;;;491.48;285.70;;;;;;;;;;5060979;28;20024;-46
2020/12/02 00:05:52;;;;;;;483.70;278.48;;;;;;;;;;5064081;28;20029;-49
2020/12/02 00:08:30;;;;;;;484.60;277.25;;;;;;;;;;5069715;28;20013;-51
2020/12/02 00:10:59;;;;;;;500.73;283.90;;;;;;;;;;5066035;28;20063;-47
2020/12/02 00:13:29;;;;;;;506.80;293.60;;;;;;;;;;5070424;28;20051;-48
2020/12/02 00:15:55;;;;;;;502.10;289.95;;;;;;;;;;5063283;28;20318;-48
2020/12/02 00:18:21;;;;;;;514.88;304.23;;;;;;;;;;5068822;28;20340;-51
2020/12/02 00:20:47;;;;;;;518.78;307.60;;;;;;;;;;5071641;28;20393;-49
2020/12/02 00:23:13;;;;;;;517.20;302.95;;;;;;;;;;5070959;28;20099;-49
2020/12/02 00:25:39;;;;;;;512.30;303.45;;;;;;;;;;5069649;28;20027;-47
2020/12/02 00:28:05;;;;;;;513.47;294.20;;;;;;;;;;5059982;28;20074;-51
2020/12/02 00:30:34;;;;;;;519.75;305.33;;;;;;;;;;5065967;28;20090;-47
2020/12/02 00:33:20;;;;;;;492.77;281.35;;;;;;;;;;5069373;28;20037;-46
2020/12/02 00:35:46;;;;;;;497.40;285.90;;;;;;;;;;5062798;28;20043;-47
2020/12/02 00:38:13;;;;;;;438.65;245.23;;;;;;;;;;5058612;28;20032;-47
2020/12/02 00:40:44;;;;;;;442.10;248.25;;;;;;;;;;5070619;28;20434;-47
2020/12/02 00:43:11;;;;;;;445.00;250.25;;;;;;;;;;5069787;28;20039;-49
2020/12/02 00:45:36;;;;;;;438.30;250.82;;;;;;;;;;5063107;28;20025;-47
2020/12/02 00:48:03;;;;;;;459.13;261.90;;;;;;;;;;5071033;28;20024;-48
2020/12/02 00:50:28;;;;;;;471.27;265.27;;;;;;;;;;5065026;28;20020;-48
2020/12/02 00:52:58;;;;;;;478.95;274.08;;;;;;;;;;5061955;28;20040;-47
2020/12/02 00:55:24;;;;;;;452.55;255.27;;;;;;;;;;5071353;28;20093;-49
2020/12/02 00:57:51;;;;;;;460.70;265.00;;;;;;;;;;5064972;28;20557;-49
2020/12/02 01:00:17;;;;;;;435.10;246.90;;;;;;;;;;5063842;28;20455;-46
2020/12/02 01:02:54;;;;;;;446.60;257.05;;;;;;;;;;5063833;28;20035;-48
2020/12/02 01:05:20;;;;;;;433.98;246.77;;;;;;;;;;5068332;28;20347;-45
2020/12/02 01:07:47;;;;;;;464.42;264.95;;;;;;;;;;5057869;28;20061;-48
2020/12/02 01:10:13;;;;;;;430.17;245.35;;;;;;;;;;5065464;28;20097;-45
2020/12/02 01:12:43;;;;;;;438.98;245.48;;;;;;;;;;5066569;28;20053;-49
2020/12/02 01:15:09;;;;;;;478.73;271.35;;;;;;;;;;5070422;28;20024;-49
2020/12/02 01:17:35;;;;;;;425.85;247.68;;;;;;;;;;5069209;28;20054;-52
2020/12/02 01:20:01;;;;;;;420.65;236.40;;;;;;;;;;5066553;28;20028;-47
2020/12/02 01:22:29;;;;;;;438.55;244.40;;;;;;;;;;5068993;28;20347;-50
2020/12/02 01:24:58;;;;;;;448.60;253.45;;;;;;;;;;5067712;28;20016;-48
2020/12/02 01:27:53;;;;;;;421.13;235.90;;;;;;;;;;5064935;28;20035;-49
2020/12/02 01:30:20;;;;;;;425.80;238.80;;;;;;;;;;5051947;28;20068;-47
2020/12/02 01:32:46;;;;;;;433.92;242.45;;;;;;;;;;5056624;28;20055;-47
2020/12/02 01:35:13;;;;;;;428.88;239.10;;;;;;;;;;5065653;28;20100;-52
2020/12/02 01:37:43;;;;;;;464.58;261.85;;;;;;;;;;5069008;28;20435;-47
2020/12/02 01:40:19;;;;;;;429.70;239.30;;;;;;;;;;5068584;28;20094;-49
2020/12/02 01:42:47;;;;;;;438.55;244.18;;;;;;;;;;5060859;28;20017;-44
2020/12/02 01:45:18;;;;;;;439.92;246.02;;;;;;;;;;5070122;28;20012;-48
2020/12/02 01:48:08;;;;;;;440.55;252.05;;;;;;;;;;5053764;28;20335;-49
2020/12/02 01:50:47;;;;;;;467.83;260.73;;;;;;;;;;5042668;28;20367;-50
2020/12/02 01:53:13;;;;;;;434.55;240.88;;;;;;;;;;5068861;28;20112;-51
2020/12/02 01:55:46;;;;;;;436.33;245.32;;;;;;;;;;5057120;28;20526;-47
2020/12/02 01:58:22;;;;;;;453.55;255.07;;;;;;;;;;5064942;28;20032;-46
2020/12/02 02:00:52;;;;;;;496.48;282.00;;;;;;;;;;5068431;28;20020;-50
2020/12/02 02:03:19;;;;;;;433.27;244.05;;;;;;;;;;5062599;28;20111;-48
2020/12/02 02:05:49;;;;;;;496.33;283.65;;;;;;;;;;5070242;28;20028;-48
2020/12/02 02:08:17;;;;;;;447.80;252.98;;;;;;;;;;5054335;28;20013;-46
2020/12/02 02:10:45;;;;;;;451.70;252.18;;;;;;;;;;5063916;28;20450;-48
2020/12/02 02:13:30;;;;;;;451.42;249.50;;;;;;;;;;5067443;28;20024;-49
2020/12/02 02:16:08;;;;;;;438.73;243.07;;;;;;;;;;5065039;28;20035;-50
2020/12/02 02:18:35;;;;;;;444.08;246.95;;;;;;;;;;5057973;28;20028;-48
2020/12/02 02:21:07;;;;;;;444.83;248.57;;;;;;;;;;5055173;28;20044;-48
2020/12/02 02:23:33;;;;;;;447.10;250.05;;;;;;;;;;5052476;28;20787;-47
2020/12/02 02:26:04;;;;;;;442.63;247.55;;;;;;;;;;5069259;28;20539;-50
2020/12/02 02:28:33;;;;;;;443.30;249.52;;;;;;;;;;5061117;28;20458;-50
2020/12/02 02:30:59;;;;;;;450.73;255.48;;;;;;;;;;5066101;28;20044;-52
2020/12/02 02:33:25;;;;;;;432.85;245.25;;;;;;;;;;5060284;28;20465;-47
2020/12/02 02:35:51;;;;;;;439.52;247.15;;;;;;;;;;5058579;28;20021;-48
2020/12/02 02:38:19;;;;;;;440.45;245.20;;;;;;;;;;5061927;28;20048;-49
2020/12/02 02:40:46;;;;;;;442.40;248.80;;;;;;;;;;5067807;28;20023;-50
2020/12/02 02:43:12;;;;;;;442.42;245.60;;;;;;;;;;5061541;28;20025;-49
2020/12/02 02:45:38;;;;;;;439.50;241.00;;;;;;;;;;5065352;28;20090;-47
2020/12/02 02:48:07;;;;;;;441.83;245.23;;;;;;;;;;5065847;28;20029;-47
2020/12/02 02:50:34;;;;;;;446.98;246.35;;;;;;;;;;5062872;28;20100;-50
2020/12/02 02:53:00;;;;;;;446.05;247.52;;;;;;;;;;5063548;28;20423;-48
2020/12/02 02:55:27;;;;;;;443.35;246.60;;;;;;;;;;5069604;28;20025;-48
2020/12/02 02:57:54;;;;;;;424.73;235.20;;;;;;;;;;5072699;28;20074;-52
2020/12/02 03:00:22;;;;;;;420.33;229.93;;;;;;;;;;5065860;28;20028;-50
2020/12/02 03:02:48;;;;;;;427.38;237.10;;;;;;;;;;5064178;28;20039;-45
2020/12/02 03:05:15;;;;;;;429.15;236.57;;;;;;;;;;5072640;28;20028;-49
2020/12/02 03:07:41;;;;;;;423.15;237.70;;;;;;;;;;5067075;28;20055;-46
2020/12/02 03:10:07;;;;;;;428.80;238.35;;;;;;;;;;5066881;28;20025;-47
2020/12/02 03:12:33;;;;;;;430.50;240.20;;;;;;;;;;5072395;28;20025;-45
2020/12/02 03:14:59;;;;;;;434.20;241.43;;;;;;;;;;5072779;28;20069;-48
2020/12/02 03:17:25;;;;;;;431.45;241.30;;;;;;;;;;5067905;28;20052;-48
2020/12/02 03:19:54;;;;;;;429.10;236.95;;;;;;;;;;5067850;28;20752;-47
2020/12/02 03:22:22;;;;;;;429.00;236.60;;;;;;;;;;5064622;28;20029;-49
2020/12/02 03:24:48;;;;;;;434.55;241.75;;;;;;;;;;5065530;28;20051;-47
2020/12/02 03:27:14;;;;;;;433.38;242.73;;;;;;;;;;5069374;28;20021;-51
2020/12/02 03:29:40;;;;;;;433.08;240.52;;;;;;;;;;5053642;28;20024;-47
2020/12/02 03:32:06;;;;;;;432.08;238.73;;;;;;;;;;5065089;28;20063;-47
2020/12/02 03:34:32;;;;;;;434.55;241.35;;;;;;;;;;5072177;28;20017;-52
2020/12/02 03:36:58;;;;;;;429.08;238.35;;;;;;;;;;5072605;28;20174;-50
2020/12/02 03:39:24;;;;;;;434.77;244.80;;;;;;;;;;5064469;28;20027;-48
2020/12/02 03:41:50;;;;;;;431.92;242.40;;;;;;;;;;5060258;28;20095;-49
2020/12/02 03:44:16;;;;;;;437.23;243.38;;;;;;;;;;5068663;28;20021;-46
2020/12/02 03:46:42;;;;;;;432.27;242.38;;;;;;;;;;5064085;28;20035;-51
2020/12/02 03:49:08;;;;;;;434.67;243.90;;;;;;;;;;5072068;28;20047;-46
2020/12/02 03:51:34;;;;;;;431.55;240.02;;;;;;;;;;5070206;28;20062;-48
2020/12/02 03:54:00;;;;;;;429.23;236.82;;;;;;;;;;5062906;28;20083;-46
2020/12/02 03:56:27;;;;;;;421.45;232.48;;;;;;;;;;5068617;28;20103;-48
2020/12/02 03:58:53;;;;;;;422.17;233.30;;;;;;;;;;5068707;28;20100;-49
2020/12/02 04:01:19;;;;;;;423.42;234.55;;;;;;;;;;5068978;28;20511;-48
2020/12/02 04:03:45;;;;;;;425.33;239.35;;;;;;;;;;5069730;28;20025;-50
2020/12/02 04:06:11;;;;;;;421.98;230.48;;;;;;;;;;5062793;28;20021;-47
2020/12/02 04:08:38;;;;;;;420.08;234.00;;;;;;;;;;5069451;28;20013;-48
2020/12/02 04:11:04;;;;;;;437.55;243.35;;;;;;;;;;5068679;28;20052;-45
2020/12/02 04:13:30;;;;;;;423.75;233.32;;;;;;;;;;5065800;28;20084;-51
2020/12/02 04:15:56;;;;;;;426.42;235.90;;;;;;;;;;5064538;28;20640;-49
2020/12/02 04:18:22;;;;;;;423.92;235.55;;;;;;;;;;5048911;28;20315;-45
2020/12/02 04:20:48;;;;;;;427.92;234.52;;;;;;;;;;5066837;28;20393;-48
2020/12/02 04:23:14;;;;;;;424.90;232.63;;;;;;;;;;5069747;28;20055;-46
2020/12/02 04:25:40;;;;;;;429.52;238.27;;;;;;;;;;5060670;28;20086;-46
2020/12/02 04:28:06;;;;;;;432.77;239.23;;;;;;;;;;5068258;28;20039;-47
2020/12/02 04:30:32;;;;;;;439.25;242.90;;;;;;;;;;5069267;28;20025;-45
2020/12/02 04:32:58;;;;;;;437.33;241.52;;;;;;;;;;5070217;28;20048;-45
2020/12/02 04:35:24;;;;;;;435.23;239.05;;;;;;;;;;5068002;28;20024;-48
2020/12/02 04:37:50;;;;;;;441.65;244.05;;;;;;;;;;5071206;28;20455;-47
2020/12/02 04:40:29;;;;;;;446.23;247.35;;;;;;;;;;5068988;28;20476;-48
2020/12/02 04:43:02;;;;;;;453.52;253.52;;;;;;;;;;5062866;28;20054;-46
2020/12/02 04:45:29;;;;;;;444.63;242.98;;;;;;;;;;5069185;28;20029;-46
2020/12/02 04:47:58;;;;;;;441.45;244.15;;;;;;;;;;5069895;28;20443;-47
2020/12/02 04:50:27;;;;;;;436.77;240.73;;;;;;;;;;5067115;28;20074;-49
2020/12/02 04:53:20;;;;;;;455.98;248.15;;;;;;;;;;5070320;28;20045;-47
2020/12/02 04:55:46;;;;;;;446.80;242.40;;;;;;;;;;5056531;28;20043;-48
2020/12/02 04:58:24;;;;;;;442.95;243.23;;;;;;;;;;5069890;28;20066;-49
2020/12/02 05:00:50;;;;;;;439.10;240.82;;;;;;;;;;5066808;28;20020;-49
2020/12/02 05:03:16;;;;;;;436.33;240.30;;;;;;;;;;5062985;28;20035;-49
2020/12/02 05:05:43;;;;;;;444.92;242.27;;;;;;;;;;5065554;28;20029;-46
2020/12/02 05:08:16;;;;;;;450.70;245.60;;;;;;;;;;5070249;28;20096;-49
2020/12/02 05:10:42;;;;;;;438.58;235.85;;;;;;;;;;5068275;28;20032;-50
2020/12/02 05:13:09;;;;;;;441.70;239.93;;;;;;;;;;5062815;28;20091;-44
2020/12/02 05:15:35;;;;;;;434.98;236.40;;;;;;;;;;5067805;28;20025;-49
2020/12/02 05:18:21;;;;;;;435.40;236.80;;;;;;;;;;5066506;28;20111;-46
2020/12/02 05:21:06;;;;;;;434.20;233.32;;;;;;;;;;5048789;28;20029;-44
2020/12/02 05:23:32;;;;;;;432.20;234.18;;;;;;;;;;5059199;28;20312;-47
2020/12/02 05:25:59;;;;;;;437.70;240.00;;;;;;;;;;5066848;28;20021;-50
2020/12/02 05:28:28;;;;;;;444.05;240.20;;;;;;;;;;5069872;28;20024;-50
2020/12/02 05:31:00;;;;;;;431.75;231.82;;;;;;;;;;5065670;28;20028;-46
2020/12/02 05:33:26;;;;;;;441.98;242.82;;;;;;;;;;5067173;28;20049;-47
2020/12/02 05:35:54;;;;;;;435.45;238.30;;;;;;;;;;5059384;28;20087;-49
2020/12/02 05:38:25;;;;;;;436.13;236.50;;;;;;;;;;5069227;28;20096;-50
2020/12/02 05:40:51;;;;;;;447.25;244.65;;;;;;;;;;5069968;28;20570;-47
2020/12/02 05:43:45;;;;;;;433.20;236.23;;;;;;;;;;5068777;28;20043;-47
2020/12/02 05:46:13;;;;;;;441.73;239.20;;;;;;;;;;5056337;28;20033;-47
2020/12/02 05:48:42;;;;;;;441.15;237.43;;;;;;;;;;5069964;28;20086;-49
2020/12/02 05:51:16;;;;;;;442.70;241.60;;;;;;;;;;5069813;28;20029;-47
2020/12/02 05:53:48;;;;;;;442.80;244.88;;;;;;;;;;5061640;28;20043;-47
2020/12/02 05:56:14;;;;;;;448.73;241.32;;;;;;;;;;5066273;28;20438;-46
2020/12/02 05:58:41;;;;;;;445.33;240.95;;;;;;;;;;5067349;28;20020;-47
2020/12/02 06:01:10;;;;;;;440.80;238.77;;;;;;;;;;5061316;28;20550;-45
2020/12/02 06:03:36;;;;;;;438.02;237.30;;;;;;;;;;5060070;28;20036;-49
2020/12/02 06:06:03;;;;;;;432.83;237.32;;;;;;;;;;5070065;28;20555;-47
2020/12/02 06:08:50;;;;;;;417.38;226.60;;;;;;;;;;5069503;28;20104;-49
2020/12/02 06:11:16;;;;;;;416.00;220.98;;;;;;;;;;5059030;28;20017;-46
2020/12/02 06:13:49;;;;;;;417.70;227.32;;;;;;;;;;5067107;28;20504;-48
2020/12/02 06:16:25;;;;;;;415.90;223.80;;;;;;;;;;5063590;28;20501;-45
2020/12/02 06:18:50;;;;;;;411.52;224.52;;;;;;;;;;5061268;28;20055;-48
2020/12/02 06:21:35;;;;;;;409.50;220.00;;;;;;;;;;5063466;28;20588;-46
2020/12/02 06:24:01;;;;;;;406.77;221.57;;;;;;;;;;5066163;28;20072;-44
2020/12/02 06:26:37;;;;;;;410.63;222.82;;;;;;;;;;5067963;28;20052;-48
2020/12/02 06:29:03;;;;;;;411.10;220.27;;;;;;;;;;5070264;28;20059;-45
2020/12/02 06:31:30;;;;;;;414.83;227.32;;;;;;;;;;5067422;28;20043;-49
2020/12/02 06:33:58;;;;;;;414.77;225.70;;;;;;;;;;5072057;28;20456;-47
2020/12/02 06:36:31;;;;;;;410.73;224.73;;;;;;;;;;5066260;28;20016;-49
2020/12/02 06:39:09;;;;;;;425.98;233.68;;;;;;;;;;5048886;28;20032;-53
2020/12/02 06:41:37;;;;;;;421.45;227.80;;;;;;;;;;5067155;28;20032;-45
2020/12/02 06:44:11;;;;;;;428.50;233.25;;;;;;;;;;5070041;28;20046;-47
2020/12/02 06:46:58;;;;;;;425.40;229.77;;;;;;;;;;5060522;28;20040;-46
2020/12/02 06:49:25;;;;;;;428.95;236.18;;;;;;;;;;5070021;28;20020;-48
2020/12/02 06:51:59;;;;;;;425.23;229.13;;;;;;;;;;5072771;28;20443;-47
2020/12/02 06:54:27;;;;;;;422.05;228.18;;;;;;;;;;5062606;28;20024;-51
2020/12/02 06:56:56;;;;;;;430.35;234.88;;;;;;;;;;5073253;28;20097;-47
2020/12/02 06:59:22;;;;;;;417.25;228.75;;;;;;;;;;5072586;28;20441;-49
2020/12/02 07:01:49;;;;;;;412.83;223.73;;;;;;;;;;5073093;28;20039;-48
2020/12/02 07:04:18;;;;;;;430.52;234.00;;;;;;;;;;5073094;28;20016;-48
2020/12/02 07:06:44;;;;;;;429.27;232.33;;;;;;;;;;5064054;28;20095;-49
2020/12/02 07:09:13;;;;;;;432.58;233.45;;;;;;;;;;5063253;28;20100;-45
2020/12/02 07:11:47;;;;;;;421.30;223.20;;;;;;;;;;5072875;28;20338;-51
2020/12/02 07:14:19;;;;;;;424.73;227.35;;;;;;;;;;5065374;28;20020;-49
2020/12/02 07:16:45;;;;;;;421.17;225.45;;;;;;;;;;5071814;28;20101;-45
2020/12/02 07:19:13;;;;;;;434.70;238.55;;;;;;;;;;5068747;28;20029;-49
2020/12/02 07:21:57;;;;;;;413.98;224.20;;;;;;;;;;5071600;28;20029;-50
2020/12/02 07:24:26;;;;;;;415.98;223.00;;;;;;;;;;5063374;28;20027;-50
2020/12/02 07:26:52;;;;;;;419.63;230.05;;;;;;;;;;5067114;28;20040;-53
2020/12/02 07:29:23;;;;;;;409.00;222.02;;;;;;;;;;5065876;28;20017;-50
2020/12/02 07:32:00;;;;;;;408.50;222.27;;;;;;;;;;5070950;28;20044;-48
2020/12/02 07:34:27;;;;;;;409.50;221.38;;;;;;;;;;5064688;28;20020;-48
2020/12/02 07:36:56;;;;;;;411.95;221.07;;;;;;;;;;5072927;28;20092;-49
2020/12/02 07:39:23;;;;;;;407.33;220.32;;;;;;;;;;5071091;28;20488;-48
2020/12/02 07:41:59;;;;;;;410.77;219.40;;;;;;;;;;5065624;28;20068;-49
2020/12/02 07:44:26;;;;;;;411.08;221.93;;;;;;;;;;5065579;28;20410;-50
2020/12/02 07:46:55;;;;;;;410.15;225.20;;;;;;;;;;5052624;28;20024;-50
2020/12/02 07:49:21;;;;;;;403.70;217.95;;;;;;;;;;5069914;28;20083;-46
2020/12/02 07:52:00;;;;;;;403.95;217.00;;;;;;;;;;5072575;28;20040;-46
2020/12/02 07:54:27;;;;;;;414.60;223.93;;;;;;;;;;5070931;28;20081;-48
2020/12/02 07:56:53;;;;;;;409.35;221.27;;;;;;;;;;5061028;28;20096;-50
2020/12/02 07:59:21;;;;;;;413.63;224.52;;;;;;;;;;5067164;28;20036;-51
2020/12/02 08:01:52;;;;;;;410.52;219.57;;;;;;;;;;5061870;28;20356;-50
2020/12/02 08:04:21;;;;;;;405.90;217.55;;;;;;;;;;5067259;28;20682;-47
2020/12/02 08:06:49;;;;;;;408.95;219.48;;;;;;;;;;5072018;28;20029;-48
2020/12/02 08:09:15;;;;;;;412.77;221.57;;;;;;;;;;5064683;28;20036;-49
2020/12/02 08:12:01;;;;;;;411.30;220.93;;;;;;;;;;5053345;28;20086;-46
2020/12/02 08:14:30;;;;;;;409.55;220.82;;;;;;;;;;5068558;28;20066;-50
2020/12/02 08:17:22;;;;;;;413.20;222.27;;;;;;;;;;5061791;28;20051;-51
2020/12/02 08:19:50;;;;;;;411.42;221.93;;;;;;;;;;5063460;28;20036;-50
2020/12/02 08:22:22;;;;;;;416.23;221.90;;;;;;;;;;5063869;28;20083;-47
2020/12/02 08:24:50;;;;;;;420.70;225.52;;;;;;;;;;5067318;28;20103;-51
2020/12/02 08:27:16;;;;;;;415.10;223.80;;;;;;;;;;5067705;28;20013;-53
2020/12/02 08:29:50;;;;;;;420.90;225.93;;;;;;;;;;5063488;28;20104;-46
2020/12/02 08:32:22;;;;;;;414.60;222.82;;;;;;;;;;5070091;28;20051;-52
2020/12/02 08:34:48;;;;;;;422.27;227.65;;;;;;;;;;5060750;28;20048;-47
2020/12/02 08:37:17;;;;;;;422.80;232.52;;;;;;;;;;5068497;28;20415;-47
2020/12/02 08:39:44;;;;;;;413.55;222.70;;;;;;;;;;5063552;28;20021;-48
2020/12/02 08:42:11;;;;;;;424.88;228.85;;;;;;;;;;5058695;28;20398;-51
2020/12/02 08:44:37;;;;;;;417.90;226.30;;;;;;;;;;5068264;28;20029;-50
2020/12/02 08:47:08;;;;;;;423.83;226.50;;;;;;;;;;5065672;28;20319;-52
2020/12/02 08:49:35;;;;;;;421.15;224.73;;;;;;;;;;5061886;28;20172;-48
2020/12/02 08:52:01;;;;;;;419.73;224.95;;;;;;;;;;5060719;28;20045;-50
2020/12/02 08:54:27;;;;;;;428.17;231.02;;;;;;;;;;5069219;28;20020;-50
2020/12/02 08:57:10;;;;;;;427.70;230.82;;;;;;;;;;5055119;28;20562;-50
2020/12/02 08:59:38;;;;;;;430.50;224.95;;;;;;;;;;5065420;28;20024;-49
2020/12/02 09:02:14;;;;;;;436.25;235.82;;;;;;;;;;5064891;28;20093;-51
2020/12/02 09:04:42;;;;;;;440.00;236.30;;;;;;;;;;5062895;28;20633;-46
2020/12/02 09:07:08;;;;;;;434.88;231.88;;;;;;;;;;5067735;28;20019;-50
2020/12/02 09:09:34;;;;;;;433.70;236.15;;;;;;;;;;5065933;28;20016;-48
2020/12/02 09:12:01;;;;;;;430.35;230.18;;;;;;;;;;5045137;28;20032;-49
2020/12/02 09:14:27;;;;;;;442.20;243.82;;;;;;;;;;5069380;28;20028;-52
2020/12/02 09:16:53;;;;;;;437.30;236.15;;;;;;;;;;5059876;28;20064;-53
2020/12/02 09:19:19;;;;;;;434.63;236.90;;;;;;;;;;5064004;28;20588;-50
2020/12/02 09:21:46;;;;;;;446.65;241.65;;;;;;;;;;5054334;28;20017;-48
2020/12/02 09:24:13;;;;;;;432.20;232.65;;;;;;;;;;5050125;28;20021;-49
2020/12/02 09:26:39;;;;;;;440.05;242.02;;;;;;;;;;5051040;28;20108;-47
2020/12/02 09:29:06;;;;;;;429.23;231.85;;;;;;;;;;5048318;28;20064;-46
2020/12/02 09:31:33;;;;;;;444.45;245.80;;;;;;;;;;5048152;28;20048;-46
2020/12/02 09:34:03;;;;;;;435.13;241.07;;;;;;;;;;5050795;28;20021;-49
2020/12/02 09:36:32;;;;;;;428.03;237.30;;;;;;;;;;5066209;28;20082;-52
2020/12/02 09:38:59;;;;;;;427.27;233.77;;;;;;;;;;5064967;28;20024;-50
2020/12/02 09:41:28;;;;;;;426.95;240.90;;;;;;;;;;5051715;28;20324;-49
2020/12/02 09:44:00;;;;;;;446.03;251.93;;;;;;;;;;5066264;28;20031;-51
2020/12/02 09:46:29;;;;;;;424.13;234.90;;;;;;;;;;5064048;28;20336;-49
2020/12/02 09:48:55;;;;;;;428.73;239.63;;;;;;;;;;5063592;28;20025;-54
2020/12/02 09:51:23;;;;;;;431.23;241.98;;;;;;;;;;5064106;28;20035;-46
2020/12/02 09:53:49;;;;;;;429.50;243.50;;;;;;;;;;5063798;28;20035;-49
2020/12/02 09:56:17;;;;;;;436.40;247.07;;;;;;;;;;5065324;28;20123;-48
2020/12/02 09:58:42;;;;;;;423.45;241.30;;;;;;;;;;5063747;28;20040;-53
2020/12/02 10:01:21;;;;;;;420.23;234.55;;;;;;;;;;5062378;28;20047;-51
2020/12/02 10:03:55;;;;;;;422.65;237.98;;;;;;;;;;5057499;28;20055;-53
2020/12/02 10:06:53;;;;;;;422.38;234.73;;;;;;;;;;5064676;28;20061;-51
2020/12/02 10:09:41;;;;;;;422.92;236.10;;;;;;;;;;5044561;28;20062;-49
2020/12/02 10:12:17;;;;;;;422.13;240.05;;;;;;;;;;5064800;28;20471;-50
2020/12/02 10:14:59;;;;;;;426.35;241.77;;;;;;;;;;5066054;28;20638;-50
2020/12/02 10:17:31;;;;;;;424.00;240.25;;;;;;;;;;5066258;28;20094;-49
2020/12/02 10:20:03;;;;;;;425.15;245.88;;;;;;;;;;5065730;28;20025;-47
2020/12/02 10:22:45;;;;;;;420.42;239.98;;;;;;;;;;5068642;28;20028;-49
2020/12/02 10:25:17;;;;;;;425.35;242.13;;;;;;;;;;5066201;28;20505;-54
2020/12/02 10:27:49;;;;;;;420.35;244.85;;;;;;;;;;5066791;28;20029;-50
2020/12/02 10:30:21;;;;;;;423.98;241.98;;;;;;;;;;5063724;28;20039;-52
2020/12/02 10:32:59;;;;;;;429.80;247.30;;;;;;;;;;5063897;28;20060;-52
2020/12/02 10:35:26;;;;;;;420.85;235.52;;;;;;;;;;5065111;28;20028;-52
2020/12/02 10:37:54;;;;;;;422.23;237.40;;;;;;;;;;5065158;28;20103;-48
2020/12/02 10:40:20;;;;;;;427.50;246.55;;;;;;;;;;5068568;28;20438;-52
2020/12/02 10:43:00;;;;;;;425.60;242.80;;;;;;;;;;5068762;28;20072;-50
2020/12/02 10:45:26;;;;;;;422.83;238.60;;;;;;;;;;5065599;28;20081;-52
2020/12/02 10:48:14;;;;;;;424.83;241.63;;;;;;;;;;5064519;28;20369;-53
2020/12/02 10:50:41;;;;;;;432.55;250.88;;;;;;;;;;5065332;28;20474;-53
2020/12/02 10:53:09;;;;;;;423.60;243.77;;;;;;;;;;5066357;28;20040;-54
2020/12/02 10:55:36;;;;;;;420.45;243.00;;;;;;;;;;5069133;28;20174;-52
2020/12/02 10:58:05;;;;;;;414.67;240.63;;;;;;;;;;5072805;28;20036;-55
2020/12/02 11:00:32;;;;;;;413.90;237.30;;;;;;;;;;5072594;28;20023;-55
2020/12/02 11:03:12;;;;;;;415.70;242.35;;;;;;;;;;5067695;28;20332;-59
2020/12/02 11:05:38;;;;;;;418.75;240.70;;;;;;;;;;5054811;28;20037;-53
2020/12/02 11:08:12;;;;;;;434.17;251.23;;;;;;;;;;5067316;28;20636;-52
2020/12/02 11:10:58;;;;;;;434.55;256.27;;;;;;;;;;5052577;28;20477;-58
2020/12/02 11:13:43;;;;;;;413.80;242.25;;;;;;;;;;5062539;28;20101;-51
2020/12/02 11:16:11;;;;;;;408.00;236.70;;;;;;;;;;5070010;28;20016;-47
2020/12/02 11:18:51;;;;;;;415.77;241.80;;;;;;;;;;5066411;28;20354;-49
2020/12/02 11:21:26;;;;;;;414.95;238.30;;;;;;;;;;5062791;28;20175;-50
2020/12/02 11:24:13;;;;;;;441.17;261.85;;;;;;;;;;5065000;28;20509;-48
2020/12/02 11:26:39;;;;;;;428.33;243.45;;;;;;;;;;5066509;28;20100;-47
2020/12/02 11:29:08;;;;;;;419.60;242.00;;;;;;;;;;5062785;28;20048;-48
2020/12/02 11:31:49;;;;;;;410.38;238.18;;;;;;;;;;5064599;28;20043;-47
2020/12/02 11:34:24;;;;;;;420.10;245.60;;;;;;;;;;5060355;28;20716;-50
2020/12/02 11:36:59;;;;;;;415.23;241.93;;;;;;;;;;5060967;28;20052;-48
2020/12/02 11:40:00;;;;;;;415.27;239.10;;;;;;;;;;5064700;28;20115;-54
2020/12/02 11:42:39;;;;;;;415.73;238.18;;;;;;;;;;5015031;28;20040;-53
2020/12/02 11:45:24;;;;;;;410.60;236.50;;;;;;;;;;5063510;28;20427;-49
2020/12/02 11:48:02;;;;;;;429.90;248.95;;;;;;;;;;5062539;28;20938;-47
2020/12/02 11:50:36;;;;;;;430.85;250.98;;;;;;;;;;5064164;28;20020;-52
2020/12/02 11:53:16;;;;;;;430.67;250.02;;;;;;;;;;5065240;28;20032;-49
2020/12/02 11:55:42;;;;;;;;;;;;;;;;;;5061658;28;20024;-52
2020/12/02 11:58:10;;;;;;;428.48;240.95;;;;;;;;;;5066668;28;19987;-51
2020/12/02 12:00:36;;;;;;;430.70;247.00;;;;;;;;;;5065640;28;20056;-54
2020/12/02 12:03:14;;;;;;;432.95;251.98;;;;;;;;;;5063449;28;20071;-50
2020/12/02 12:05:47;;;;;;;426.83;247.43;;;;;;;;;;5061673;28;20043;-49
2020/12/02 12:08:23;;;;;;;422.10;243.75;;;;;;;;;;5061778;28;20507;-47
2020/12/02 12:10:55;;;;;;;433.33;252.15;;;;;;;;;;5058440;28;20043;-50
2020/12/02 12:13:23;;;;;;;426.23;249.63;;;;;;;;;;5056424;28;20021;-48
2020/12/02 12:15:52;;;;;;;430.58;250.38;;;;;;;;;;5064720;28;20017;-49
2020/12/02 12:18:21;;;;;;;425.45;251.40;;;;;;;;;;5064532;28;20028;-48
2020/12/02 12:20:51;;;;;;;424.70;245.13;;;;;;;;;;5060198;28;20017;-50
2020/12/02 12:23:23;;;;;;;430.92;252.45;;;;;;;;;;5066138;28;20039;-51
2020/12/02 12:25:51;;;;;;;422.90;244.23;;;;;;;;;;5068141;28;20048;-48
2020/12/02 12:28:19;;;;;;;429.27;252.15;;;;;;;;;;5067267;28;20436;-48
2020/12/02 12:30:45;;;;;;;427.70;251.32;;;;;;;;;;5057639;28;20032;-52
2020/12/02 12:33:32;;;;;;;422.58;247.55;;;;;;;;;;5058820;28;20048;-48
2020/12/02 12:36:01;;;;;;;425.20;241.43;;;;;;;;;;5059133;28;20494;-49
2020/12/02 12:38:39;;;;;;;422.20;246.65;;;;;;;;;;5058649;28;20616;-51
2020/12/02 12:41:31;;;;;;;428.98;247.50;;;;;;;;;;5063639;28;20178;-48
2020/12/02 12:44:01;;;;;;;423.52;242.82;;;;;;;;;;5061280;28;20032;-50
2020/12/02 12:46:35;;;;;;;422.98;243.07;;;;;;;;;;5066641;28;20001;-47
2020/12/02 12:49:03;;;;;;;430.98;250.68;;;;;;;;;;5064743;28;20036;-53
2020/12/02 12:51:30;;;;;;;436.23;254.68;;;;;;;;;;5065232;28;20032;-47
2020/12/02 12:53:58;;;;;;;440.75;259.38;;;;;;;;;;5065150;28;20021;-49
2020/12/02 12:56:24;;;;;;;436.13;256.45;;;;;;;;;;5068631;28;20017;-50
2020/12/02 12:58:50;;;;;;;435.70;252.68;;;;;;;;;;5055669;28;20085;-50
2020/12/02 13:01:16;;;;;;;442.50;260.10;;;;;;;;;;5058990;28;20016;-49
2020/12/02 13:03:42;;;;;;;439.75;255.52;;;;;;;;;;5068438;28;20345;-53
2020/12/02 13:06:27;;;;;;;442.25;264.25;;;;;;;;;;5066464;28;20033;-53
2020/12/02 13:09:30;;;;;;;437.80;256.80;;;;;;;;;;5063875;28;20017;-47
2020/12/02 13:12:14;;;;;;;435.77;253.85;;;;;;;;;;5009108;28;20065;-49
2020/12/02 13:14:46;;;;;;;437.88;254.93;;;;;;;;;;5063109;28;20051;-48
2020/12/02 13:17:26;;;;;;;444.73;256.63;;;;;;;;;;5062751;28;20386;-50
2020/12/02 13:20:04;;;;;;;441.30;256.67;;;;;;;;;;5062225;28;20101;-51
2020/12/02 13:22:30;;;;;;;444.63;259.75;;;;;;;;;;5059367;28;20027;-50
2020/12/02 13:25:02;;;;;;;444.08;257.73;;;;;;;;;;5065198;28;20032;-50
2020/12/02 13:27:31;;;;;;;437.15;253.90;;;;;;;;;;5059274;28;20390;-47
2020/12/02 13:30:06;;;;;;;440.05;257.38;;;;;;;;;;5066624;28;20019;-51
2020/12/02 13:32:48;;;;;;;435.98;255.25;;;;;;;;;;5065856;28;20521;-49
2020/12/02 13:35:14;;;;;;;442.88;259.63;;;;;;;;;;5048380;28;20363;-46
2020/12/02 13:37:40;;;;;;;451.23;264.08;;;;;;;;;;5060540;28;20473;-51
2020/12/02 13:40:06;;;;;;;433.80;254.95;;;;;;;;;;5060372;28;20363;-47
2020/12/02 13:42:32;;;;;;;438.92;260.42;;;;;;;;;;5068383;28;20443;-51
2020/12/02 13:45:17;;;;;;;446.63;260.95;;;;;;;;;;5056900;28;20085;-48
2020/12/02 13:47:44;;;;;;;451.25;264.92;;;;;;;;;;5064261;28;20060;-50
2020/12/02 13:50:14;;;;;;;444.42;262.70;;;;;;;;;;5059777;28;20520;-48
2020/12/02 13:53:07;;;;;;;439.13;254.52;;;;;;;;;;5062938;28;20036;-47
2020/12/02 13:55:49;;;;;;;435.40;252.48;;;;;;;;;;5055318;28;20060;-49
2020/12/02 13:58:35;;;;;;;438.55;254.50;;;;;;;;;;5067048;28;20107;-50
2020/12/02 14:01:25;;;;;;;435.48;254.10;;;;;;;;;;5056407;28;20013;-51
2020/12/02 14:04:03;;;;;;;434.37;249.43;;;;;;;;;;5065949;28;20449;-49
2020/12/02 14:06:29;;;;;;;440.35;259.17;;;;;;;;;;5065753;28;20058;-47
2020/12/02 14:08:55;;;;;;;443.52;257.88;;;;;;;;;;5064520;28;20029;-49
2020/12/02 14:11:32;;;;;;;444.55;262.25;;;;;;;;;;5064403;28;20030;-47
2020/12/02 14:13:59;;;;;;;439.65;261.55;;;;;;;;;;5058759;28;20082;-50